sensor_id;sensor_type;location;lat;lon;timestamp;temperature;humidity
14000;DHT22;7075;53.574;10.054;2023-05-27T00:01:58;13.70;99.90
14000;DHT22;7075;53.574;10.054;2023-05-27T00:04:24;13.70;99.90
14000;DHT22;7075;53.574;10.054;2023-05-27T00:06:49;13.60;99.90
14000;DHT22;7075;53.574;10.054;2023-05-27T00:09:15;13.60;99.90
14000;DHT22;7075;53.574;10.054;2023-05-27T00:11:41;13.50;99.90
14000;DHT22;7075;53.574;10.054;2023-05-27T00:14:06;13.40;99.90
14000;DHT22;7075;53.574;10.054;2023-05-27T00:16:32;13.40;99.90
14000;DHT22;7075;53.574;10.054;2023-05-27T00:19:01;13.40;99.90
14000;DHT22;7075;53.574;10.054;2023-05-27T00:21:27;13.30;99.90
14000;DHT22;7075;53.574;10.054;2023-05-27T00:23:52;13.20;99.90
14000;DHT22;7075;53.574;10.054;2023-05-27T00:26:18;13.20;99.90
14000;DHT22;7075;53.574;10.054;2023-05-27T00:28:44;13.20;99.90
14000;DHT22;7075;53.574;10.054;2023-05-27T00:31:09;13.20;99.90
14000;DHT22;7075;53.574;10.054;2023-05-27T00:33:35;13.20;99.90
14000;DHT22;7075;53.574;10.054;2023-05-27T00:36:01;13.20;99.90
14000;DHT22;7075;53.574;10.054;2023-05-27T00:38:26;13.20;99.90
14000;DHT22;7075;53.574;10.054;2023-05-27T00:40:53;13.20;99.90
14000;DHT22;7075;53.574;10.054;2023-05-27T00:43:25;13.20;99.90
14000;DHT22;7075;53.574;10.054;2023-05-27T00:45:50;13.10;99.90
14000;DHT22;7075;53.574;10.054;2023-05-27T00:48:16;13.10;99.90
14000;DHT22;7075;53.574;10.054;2023-05-27T00:50:42;12.80;99.90
14000;DHT22;7075;53.574;10.054;2023-05-27T00:53:08;12.80;99.90
14000;DHT22;7075;53.574;10.054;2023-05-27T00:55:33;12.60;99.90
14000;DHT22;7075;53.574;10.054;2023-05-27T00:57:59;12.60;99.90
14000;DHT22;7075;53.574;10.054;2023-05-27T01:00:25;12.70;99.90
14000;DHT22;7075;53.574;10.054;2023-05-27T01:02:52;12.70;99.90
14000;DHT22;7075;53.574;10.054;2023-05-27T01:05:18;12.80;99.90
14000;DHT22;7075;53.574;10.054;2023-05-27T01:10:50;12.90;99.90
14000;DHT22;7075;53.574;10.054;2023-05-27T01:16:11;12.80;99.90
14000;DHT22;7075;53.574;10.054;2023-05-27T01:18:37;12.80;99.90
14000;DHT22;7075;53.574;10.054;2023-05-27T01:21:09;12.80;99.90
14000;DHT22;7075;53.574;10.054;2023-05-27T01:23:35;12.80;99.90
14000;DHT22;7075;53.574;10.054;2023-05-27T01:26:04;12.70;99.90
14000;DHT22;7075;53.574;10.054;2023-05-27T01:28:30;12.70;99.90
14000;DHT22;7075;53.574;10.054;2023-05-27T01:31:01;12.60;99.90
14000;DHT22;7075;53.574;10.054;2023-05-27T01:33:28;12.60;99.90
14000;DHT22;7075;53.574;10.054;2023-05-27T01:35:59;12.50;99.90
14000;DHT22;7075;53.574;10.054;2023-05-27T01:38:28;12.50;99.90
14000;DHT22;7075;53.574;10.054;2023-05-27T01:40:55;12.50;99.90
14000;DHT22;7075;53.574;10.054;2023-05-27T01:43:22;12.50;99.90
14000;DHT22;7075;53.574;10.054;2023-05-27T01:45:48;12.50;99.90
14000;DHT22;7075;53.574;10.054;2023-05-27T01:48:13;12.50;99.90
14000;DHT22;7075;53.574;10.054;2023-05-27T01:50:39;12.50;99.90
14000;DHT22;7075;53.574;10.054;2023-05-27T01:53:05;12.30;99.90
14000;DHT22;7075;53.574;10.054;2023-05-27T01:55:31;12.30;99.90
14000;DHT22;7075;53.574;10.054;2023-05-27T01:57:57;12.30;99.90
14000;DHT22;7075;53.574;10.054;2023-05-27T02:00:23;12.30;99.90
14000;DHT22;7075;53.574;10.054;2023-05-27T02:02:49;12.20;99.90
14000;DHT22;7075;53.574;10.054;2023-05-27T02:05:15;12.20;99.90
14000;DHT22;7075;53.574;10.054;2023-05-27T02:07:41;12.30;99.90
14000;DHT22;7075;53.574;10.054;2023-05-27T02:10:07;12.20;99.90
14000;DHT22;7075;53.574;10.054;2023-05-27T02:12:33;12.20;99.90
14000;DHT22;7075;53.574;10.054;2023-05-27T02:14:58;12.10;99.90
14000;DHT22;7075;53.574;10.054;2023-05-27T02:17:24;12.00;99.90
14000;DHT22;7075;53.574;10.054;2023-05-27T02:19:52;12.00;99.90
14000;DHT22;7075;53.574;10.054;2023-05-27T02:22:18;12.00;99.90
14000;DHT22;7075;53.574;10.054;2023-05-27T02:24:43;11.90;99.90
14000;DHT22;7075;53.574;10.054;2023-05-27T02:27:09;11.90;99.90
14000;DHT22;7075;53.574;10.054;2023-05-27T02:29:35;11.90;99.90
14000;DHT22;7075;53.574;10.054;2023-05-27T02:32:01;11.90;99.90
14000;DHT22;7075;53.574;10.054;2023-05-27T02:34:26;11.90;99.90
14000;DHT22;7075;53.574;10.054;2023-05-27T02:36:52;12.00;99.90
14000;DHT22;7075;53.574;10.054;2023-05-27T02:39:18;12.00;99.90
14000;DHT22;7075;53.574;10.054;2023-05-27T02:41:43;11.90;99.90
14000;DHT22;7075;53.574;10.054;2023-05-27T02:44:09;11.90;99.90
14000;DHT22;7075;53.574;10.054;2023-05-27T02:46:34;11.90;99.90
14000;DHT22;7075;53.574;10.054;2023-05-27T02:49:00;11.90;99.90
14000;DHT22;7075;53.574;10.054;2023-05-27T02:51:28;11.80;99.90
14000;DHT22;7075;53.574;10.054;2023-05-27T02:53:54;11.70;99.90
14000;DHT22;7075;53.574;10.054;2023-05-27T02:56:19;11.70;99.90
14000;DHT22;7075;53.574;10.054;2023-05-27T02:58:45;11.70;99.90
14000;DHT22;7075;53.574;10.054;2023-05-27T03:01:10;11.70;99.90
14000;DHT22;7075;53.574;10.054;2023-05-27T03:03:36;11.70;99.90
14000;DHT22;7075;53.574;10.054;2023-05-27T03:06:02;11.70;99.90
14000;DHT22;7075;53.574;10.054;2023-05-27T03:08:28;11.60;99.90
14000;DHT22;7075;53.574;10.054;2023-05-27T03:10:54;11.60;99.90
14000;DHT22;7075;53.574;10.054;2023-05-27T03:13:20;11.60;99.90
14000;DHT22;7075;53.574;10.054;2023-05-27T03:15:45;11.60;99.90
14000;DHT22;7075;53.574;10.054;2023-05-27T03:18:11;11.60;99.90
14000;DHT22;7075;53.574;10.054;2023-05-27T03:20:36;11.50;99.90
14000;DHT22;7075;53.574;10.054;2023-05-27T03:23:02;11.50;99.90
14000;DHT22;7075;53.574;10.054;2023-05-27T03:25:28;11.40;99.90
14000;DHT22;7075;53.574;10.054;2023-05-27T03:27:54;11.40;99.90
14000;DHT22;7075;53.574;10.054;2023-05-27T03:30:20;11.30;99.90
14000;DHT22;7075;53.574;10.054;2023-05-27T03:32:46;11.30;99.90
14000;DHT22;7075;53.574;10.054;2023-05-27T03:35:11;11.30;99.90
14000;DHT22;7075;53.574;10.054;2023-05-27T03:37:37;11.30;99.90
14000;DHT22;7075;53.574;10.054;2023-05-27T03:40:03;11.30;99.90
14000;DHT22;7075;53.574;10.054;2023-05-27T03:42:28;11.30;99.90
14000;DHT22;7075;53.574;10.054;2023-05-27T03:44:54;11.40;99.90
14000;DHT22;7075;53.574;10.054;2023-05-27T03:47:20;11.30;99.90
14000;DHT22;7075;53.574;10.054;2023-05-27T03:49:47;11.30;99.90
14000;DHT22;7075;53.574;10.054;2023-05-27T03:52:14;11.30;99.90
14000;DHT22;7075;53.574;10.054;2023-05-27T03:54:39;11.30;99.90
14000;DHT22;7075;53.574;10.054;2023-05-27T03:57:06;11.30;99.90
14000;DHT22;7075;53.574;10.054;2023-05-27T03:59:32;11.20;99.90
14000;DHT22;7075;53.574;10.054;2023-05-27T04:01:58;11.20;99.90
14000;DHT22;7075;53.574;10.054;2023-05-27T04:04:23;11.20;99.90
14000;DHT22;7075;53.574;10.054;2023-05-27T04:06:49;11.20;99.90
14000;DHT22;7075;53.574;10.054;2023-05-27T04:09:14;11.20;99.90
14000;DHT22;7075;53.574;10.054;2023-05-27T04:11:40;11.20;99.90
14000;DHT22;7075;53.574;10.054;2023-05-27T04:14:05;11.20;99.90
14000;DHT22;7075;53.574;10.054;2023-05-27T04:16:35;11.10;99.90
14000;DHT22;7075;53.574;10.054;2023-05-27T04:19:01;11.10;99.90
14000;DHT22;7075;53.574;10.054;2023-05-27T04:21:26;11.10;99.90
14000;DHT22;7075;53.574;10.054;2023-05-27T04:23:52;11.20;99.90
14000;DHT22;7075;53.574;10.054;2023-05-27T04:26:17;11.10;99.90
14000;DHT22;7075;53.574;10.054;2023-05-27T04:28:43;11.20;99.90
14000;DHT22;7075;53.574;10.054;2023-05-27T04:31:11;11.20;99.90
14000;DHT22;7075;53.574;10.054;2023-05-27T04:33:39;11.20;99.90
14000;DHT22;7075;53.574;10.054;2023-05-27T04:36:06;11.20;99.90
14000;DHT22;7075;53.574;10.054;2023-05-27T04:38:31;11.20;99.90
14000;DHT22;7075;53.574;10.054;2023-05-27T04:40:57;11.20;99.90
14000;DHT22;7075;53.574;10.054;2023-05-27T04:43:22;11.20;99.90
14000;DHT22;7075;53.574;10.054;2023-05-27T04:45:48;11.30;99.90
14000;DHT22;7075;53.574;10.054;2023-05-27T04:48:14;11.30;99.90
14000;DHT22;7075;53.574;10.054;2023-05-27T04:50:41;11.30;99.90
14000;DHT22;7075;53.574;10.054;2023-05-27T04:53:06;11.30;99.90
14000;DHT22;7075;53.574;10.054;2023-05-27T04:55:32;11.30;99.90
14000;DHT22;7075;53.574;10.054;2023-05-27T04:57:59;11.30;99.90
14000;DHT22;7075;53.574;10.054;2023-05-27T05:00:24;11.30;99.90
14000;DHT22;7075;53.574;10.054;2023-05-27T05:03:18;11.40;99.90
14000;DHT22;7075;53.574;10.054;2023-05-27T05:05:51;11.40;99.90
14000;DHT22;7075;53.574;10.054;2023-05-27T05:08:17;11.40;99.90
14000;DHT22;7075;53.574;10.054;2023-05-27T05:10:43;11.40;99.90
14000;DHT22;7075;53.574;10.054;2023-05-27T05:13:09;11.40;99.90
14000;DHT22;7075;53.574;10.054;2023-05-27T05:15:34;11.40;99.90
14000;DHT22;7075;53.574;10.054;2023-05-27T05:18:00;11.50;99.90
14000;DHT22;7075;53.574;10.054;2023-05-27T05:20:25;11.50;99.90
14000;DHT22;7075;53.574;10.054;2023-05-27T05:22:51;11.50;99.90
14000;DHT22;7075;53.574;10.054;2023-05-27T05:25:16;11.50;99.90
14000;DHT22;7075;53.574;10.054;2023-05-27T05:27:42;11.50;99.90
14000;DHT22;7075;53.574;10.054;2023-05-27T05:30:08;11.50;99.90
14000;DHT22;7075;53.574;10.054;2023-05-27T05:32:33;11.60;99.90
14000;DHT22;7075;53.574;10.054;2023-05-27T05:34:59;11.60;99.90
14000;DHT22;7075;53.574;10.054;2023-05-27T05:37:25;11.60;99.90
14000;DHT22;7075;53.574;10.054;2023-05-27T05:39:50;11.60;99.90
14000;DHT22;7075;53.574;10.054;2023-05-27T05:42:16;11.70;99.90
14000;DHT22;7075;53.574;10.054;2023-05-27T05:44:42;11.70;99.90
14000;DHT22;7075;53.574;10.054;2023-05-27T05:47:08;11.70;99.90
14000;DHT22;7075;53.574;10.054;2023-05-27T05:49:33;11.70;99.90
14000;DHT22;7075;53.574;10.054;2023-05-27T05:51:59;11.70;99.90
14000;DHT22;7075;53.574;10.054;2023-05-27T05:54:24;11.70;99.90
14000;DHT22;7075;53.574;10.054;2023-05-27T05:56:50;11.70;99.90
14000;DHT22;7075;53.574;10.054;2023-05-27T05:59:15;11.80;99.90
14000;DHT22;7075;53.574;10.054;2023-05-27T06:01:41;11.80;99.90
14000;DHT22;7075;53.574;10.054;2023-05-27T06:04:07;11.90;99.90
14000;DHT22;7075;53.574;10.054;2023-05-27T06:06:32;11.90;99.90
14000;DHT22;7075;53.574;10.054;2023-05-27T06:08:58;11.90;99.90
14000;DHT22;7075;53.574;10.054;2023-05-27T06:11:23;11.90;99.90
14000;DHT22;7075;53.574;10.054;2023-05-27T06:13:49;12.00;99.90
14000;DHT22;7075;53.574;10.054;2023-05-27T06:16:14;12.00;99.90
14000;DHT22;7075;53.574;10.054;2023-05-27T06:18:40;12.00;99.90
14000;DHT22;7075;53.574;10.054;2023-05-27T06:21:05;12.00;99.90
14000;DHT22;7075;53.574;10.054;2023-05-27T06:23:31;12.00;99.90
14000;DHT22;7075;53.574;10.054;2023-05-27T06:25:57;12.00;99.90
14000;DHT22;7075;53.574;10.054;2023-05-27T06:28:22;12.00;99.90
14000;DHT22;7075;53.574;10.054;2023-05-27T06:30:48;12.10;99.90
14000;DHT22;7075;53.574;10.054;2023-05-27T06:33:13;12.10;99.90
14000;DHT22;7075;53.574;10.054;2023-05-27T06:35:39;12.10;99.90
14000;DHT22;7075;53.574;10.054;2023-05-27T06:38:05;12.10;99.90
14000;DHT22;7075;53.574;10.054;2023-05-27T06:40:30;12.20;99.90
14000;DHT22;7075;53.574;10.054;2023-05-27T06:42:56;12.20;99.90
14000;DHT22;7075;53.574;10.054;2023-05-27T06:45:22;12.20;99.90
14000;DHT22;7075;53.574;10.054;2023-05-27T06:47:47;12.30;99.90
14000;DHT22;7075;53.574;10.054;2023-05-27T06:50:13;12.30;99.90
14000;DHT22;7075;53.574;10.054;2023-05-27T06:52:38;12.40;99.90
14000;DHT22;7075;53.574;10.054;2023-05-27T06:55:04;12.40;99.90
14000;DHT22;7075;53.574;10.054;2023-05-27T06:57:30;12.40;99.90
14000;DHT22;7075;53.574;10.054;2023-05-27T06:59:56;12.40;99.90
14000;DHT22;7075;53.574;10.054;2023-05-27T07:02:21;12.50;99.90
14000;DHT22;7075;53.574;10.054;2023-05-27T07:04:47;12.50;99.90
14000;DHT22;7075;53.574;10.054;2023-05-27T07:07:13;12.50;99.90
14000;DHT22;7075;53.574;10.054;2023-05-27T07:09:39;12.60;99.90
14000;DHT22;7075;53.574;10.054;2023-05-27T07:12:04;12.60;99.90
14000;DHT22;7075;53.574;10.054;2023-05-27T07:14:32;12.60;99.90
14000;DHT22;7075;53.574;10.054;2023-05-27T07:16:57;12.70;99.90
14000;DHT22;7075;53.574;10.054;2023-05-27T07:19:23;12.60;99.90
14000;DHT22;7075;53.574;10.054;2023-05-27T07:21:49;12.70;99.90
14000;DHT22;7075;53.574;10.054;2023-05-27T07:24:14;12.70;99.90
14000;DHT22;7075;53.574;10.054;2023-05-27T07:26:40;12.70;99.90
14000;DHT22;7075;53.574;10.054;2023-05-27T07:29:06;12.70;99.90
14000;DHT22;7075;53.574;10.054;2023-05-27T07:31:31;12.80;99.90
14000;DHT22;7075;53.574;10.054;2023-05-27T07:33:57;12.80;99.90
14000;DHT22;7075;53.574;10.054;2023-05-27T07:36:23;12.80;99.90
14000;DHT22;7075;53.574;10.054;2023-05-27T07:38:48;12.90;99.90
14000;DHT22;7075;53.574;10.054;2023-05-27T07:41:14;12.90;99.90
14000;DHT22;7075;53.574;10.054;2023-05-27T07:43:40;13.00;99.90
14000;DHT22;7075;53.574;10.054;2023-05-27T07:46:05;13.10;99.90
14000;DHT22;7075;53.574;10.054;2023-05-27T07:48:31;13.10;99.90
14000;DHT22;7075;53.574;10.054;2023-05-27T07:50:57;13.10;99.90
14000;DHT22;7075;53.574;10.054;2023-05-27T07:53:23;13.20;99.90
14000;DHT22;7075;53.574;10.054;2023-05-27T07:55:48;13.20;99.90
14000;DHT22;7075;53.574;10.054;2023-05-27T07:58:14;13.30;99.90
14000;DHT22;7075;53.574;10.054;2023-05-27T08:00:40;13.30;99.90
14000;DHT22;7075;53.574;10.054;2023-05-27T08:03:05;13.30;99.90
14000;DHT22;7075;53.574;10.054;2023-05-27T08:05:31;13.30;99.90
14000;DHT22;7075;53.574;10.054;2023-05-27T08:07:57;13.40;99.90
14000;DHT22;7075;53.574;10.054;2023-05-27T08:10:23;13.40;99.90
14000;DHT22;7075;53.574;10.054;2023-05-27T08:12:49;13.50;99.90
14000;DHT22;7075;53.574;10.054;2023-05-27T08:15:14;13.50;99.90
14000;DHT22;7075;53.574;10.054;2023-05-27T08:17:40;13.60;99.90
14000;DHT22;7075;53.574;10.054;2023-05-27T08:20:07;13.60;99.90
14000;DHT22;7075;53.574;10.054;2023-05-27T08:22:33;13.70;99.90
14000;DHT22;7075;53.574;10.054;2023-05-27T08:24:59;13.70;99.90
14000;DHT22;7075;53.574;10.054;2023-05-27T08:27:46;13.70;99.90
14000;DHT22;7075;53.574;10.054;2023-05-27T08:30:13;13.80;99.90
14000;DHT22;7075;53.574;10.054;2023-05-27T08:32:42;13.80;99.90
14000;DHT22;7075;53.574;10.054;2023-05-27T08:35:08;13.90;99.90
14000;DHT22;7075;53.574;10.054;2023-05-27T08:37:34;13.90;99.90
14000;DHT22;7075;53.574;10.054;2023-05-27T08:40:00;14.00;99.90
14000;DHT22;7075;53.574;10.054;2023-05-27T08:42:26;14.00;99.90
14000;DHT22;7075;53.574;10.054;2023-05-27T08:44:51;14.00;99.90
14000;DHT22;7075;53.574;10.054;2023-05-27T08:47:17;14.10;99.90
14000;DHT22;7075;53.574;10.054;2023-05-27T08:49:44;14.10;99.90
14000;DHT22;7075;53.574;10.054;2023-05-27T08:52:10;14.10;99.90
14000;DHT22;7075;53.574;10.054;2023-05-27T08:54:36;14.20;99.90
14000;DHT22;7075;53.574;10.054;2023-05-27T08:57:06;14.20;99.90
14000;DHT22;7075;53.574;10.054;2023-05-27T08:59:33;14.30;99.90
14000;DHT22;7075;53.574;10.054;2023-05-27T09:01:59;14.30;99.90
14000;DHT22;7075;53.574;10.054;2023-05-27T09:04:25;14.30;99.90
14000;DHT22;7075;53.574;10.054;2023-05-27T09:06:52;14.30;99.90
14000;DHT22;7075;53.574;10.054;2023-05-27T09:09:18;14.30;99.90
14000;DHT22;7075;53.574;10.054;2023-05-27T09:11:44;14.30;99.90
14000;DHT22;7075;53.574;10.054;2023-05-27T09:14:30;14.30;99.90
14000;DHT22;7075;53.574;10.054;2023-05-27T09:16:56;14.30;99.90
14000;DHT22;7075;53.574;10.054;2023-05-27T09:19:22;14.30;99.90
14000;DHT22;7075;53.574;10.054;2023-05-27T09:21:51;14.40;99.90
14000;DHT22;7075;53.574;10.054;2023-05-27T09:24:18;14.40;99.90
14000;DHT22;7075;53.574;10.054;2023-05-27T09:26:43;14.40;99.90
14000;DHT22;7075;53.574;10.054;2023-05-27T09:29:09;14.50;99.90
14000;DHT22;7075;53.574;10.054;2023-05-27T09:31:40;14.50;99.90
14000;DHT22;7075;53.574;10.054;2023-05-27T09:34:16;14.50;99.90
14000;DHT22;7075;53.574;10.054;2023-05-27T09:36:46;14.70;99.90
14000;DHT22;7075;53.574;10.054;2023-05-27T09:39:13;14.80;99.90
14000;DHT22;7075;53.574;10.054;2023-05-27T09:41:40;14.80;99.90
14000;DHT22;7075;53.574;10.054;2023-05-27T09:44:05;14.80;99.90
14000;DHT22;7075;53.574;10.054;2023-05-27T09:46:35;14.80;99.90
14000;DHT22;7075;53.574;10.054;2023-05-27T09:49:02;14.80;99.90
14000;DHT22;7075;53.574;10.054;2023-05-27T09:51:31;14.80;99.90
14000;DHT22;7075;53.574;10.054;2023-05-27T09:53:58;14.90;99.90
14000;DHT22;7075;53.574;10.054;2023-05-27T09:56:26;15.00;99.90
14000;DHT22;7075;53.574;10.054;2023-05-27T09:58:56;15.10;99.90
14000;DHT22;7075;53.574;10.054;2023-05-27T10:01:25;15.10;99.90
14000;DHT22;7075;53.574;10.054;2023-05-27T10:03:51;15.20;99.90
14000;DHT22;7075;53.574;10.054;2023-05-27T10:06:17;15.20;99.90
14000;DHT22;7075;53.574;10.054;2023-05-27T10:08:43;15.30;99.90
14000;DHT22;7075;53.574;10.054;2023-05-27T10:11:13;15.30;99.90
14000;DHT22;7075;53.574;10.054;2023-05-27T10:13:39;15.40;99.90
14000;DHT22;7075;53.574;10.054;2023-05-27T10:16:05;15.50;99.90
14000;DHT22;7075;53.574;10.054;2023-05-27T10:18:31;15.60;99.90
14000;DHT22;7075;53.574;10.054;2023-05-27T10:21:00;15.60;99.90
14000;DHT22;7075;53.574;10.054;2023-05-27T10:23:30;15.70;99.90
14000;DHT22;7075;53.574;10.054;2023-05-27T10:26:06;15.90;99.90
14000;DHT22;7075;53.574;10.054;2023-05-27T10:28:33;15.90;99.90
14000;DHT22;7075;53.574;10.054;2023-05-27T10:31:07;16.00;99.90
14000;DHT22;7075;53.574;10.054;2023-05-27T10:33:38;15.90;99.90
14000;DHT22;7075;53.574;10.054;2023-05-27T10:38:38;16.00;99.90
14000;DHT22;7075;53.574;10.054;2023-05-27T10:41:06;16.10;99.90
14000;DHT22;7075;53.574;10.054;2023-05-27T10:43:32;16.20;99.90
14000;DHT22;7075;53.574;10.054;2023-05-27T10:46:11;16.20;99.90
14000;DHT22;7075;53.574;10.054;2023-05-27T10:48:37;16.30;99.90
14000;DHT22;7075;53.574;10.054;2023-05-27T10:51:05;16.30;99.90
14000;DHT22;7075;53.574;10.054;2023-05-27T10:53:35;16.30;99.90
14000;DHT22;7075;53.574;10.054;2023-05-27T10:56:01;16.50;99.90
14000;DHT22;7075;53.574;10.054;2023-05-27T10:58:28;16.50;99.90
14000;DHT22;7075;53.574;10.054;2023-05-27T11:00:55;16.50;99.90
14000;DHT22;7075;53.574;10.054;2023-05-27T11:03:26;16.60;99.90
14000;DHT22;7075;53.574;10.054;2023-05-27T11:06:05;16.60;99.90
14000;DHT22;7075;53.574;10.054;2023-05-27T11:08:32;16.70;99.90
14000;DHT22;7075;53.574;10.054;2023-05-27T11:11:02;16.70;99.90
14000;DHT22;7075;53.574;10.054;2023-05-27T11:13:35;16.80;99.90
14000;DHT22;7075;53.574;10.054;2023-05-27T11:16:06;16.90;99.90
14000;DHT22;7075;53.574;10.054;2023-05-27T11:21:03;17.00;99.90
14000;DHT22;7075;53.574;10.054;2023-05-27T11:23:45;17.10;99.90
14000;DHT22;7075;53.574;10.054;2023-05-27T11:26:21;17.10;99.90
14000;DHT22;7075;53.574;10.054;2023-05-27T11:28:52;17.10;99.90
14000;DHT22;7075;53.574;10.054;2023-05-27T11:31:30;17.10;99.90
14000;DHT22;7075;53.574;10.054;2023-05-27T11:33:56;17.10;99.90
14000;DHT22;7075;53.574;10.054;2023-05-27T11:36:26;17.10;99.90
14000;DHT22;7075;53.574;10.054;2023-05-27T11:38:57;17.10;99.90
14000;DHT22;7075;53.574;10.054;2023-05-27T11:41:25;17.10;99.90
14000;DHT22;7075;53.574;10.054;2023-05-27T11:44:05;17.20;99.90
14000;DHT22;7075;53.574;10.054;2023-05-27T11:49:04;17.30;99.90
14000;DHT22;7075;53.574;10.054;2023-05-27T11:51:30;17.30;99.90
14000;DHT22;7075;53.574;10.054;2023-05-27T11:53:58;17.40;99.90
14000;DHT22;7075;53.574;10.054;2023-05-27T11:56:24;17.40;99.90
14000;DHT22;7075;53.574;10.054;2023-05-27T11:58:50;17.50;99.90
14000;DHT22;7075;53.574;10.054;2023-05-27T12:01:16;17.60;99.90
14000;DHT22;7075;53.574;10.054;2023-05-27T12:03:41;17.80;99.90
14000;DHT22;7075;53.574;10.054;2023-05-27T12:06:07;18.00;99.90
14000;DHT22;7075;53.574;10.054;2023-05-27T12:08:32;18.20;99.90
14000;DHT22;7075;53.574;10.054;2023-05-27T12:10:58;18.30;99.90
14000;DHT22;7075;53.574;10.054;2023-05-27T12:13:24;18.50;99.90
14000;DHT22;7075;53.574;10.054;2023-05-27T12:15:50;18.60;99.90
14000;DHT22;7075;53.574;10.054;2023-05-27T12:18:16;18.80;99.90
14000;DHT22;7075;53.574;10.054;2023-05-27T12:20:43;18.90;99.90
14000;DHT22;7075;53.574;10.054;2023-05-27T12:23:09;19.00;99.90
14000;DHT22;7075;53.574;10.054;2023-05-27T12:25:35;19.10;99.90
14000;DHT22;7075;53.574;10.054;2023-05-27T12:28:01;19.30;99.90
14000;DHT22;7075;53.574;10.054;2023-05-27T12:30:26;19.30;99.90
14000;DHT22;7075;53.574;10.054;2023-05-27T12:32:52;19.40;99.90
14000;DHT22;7075;53.574;10.054;2023-05-27T12:35:18;19.50;99.90
14000;DHT22;7075;53.574;10.054;2023-05-27T12:37:44;19.60;99.90
14000;DHT22;7075;53.574;10.054;2023-05-27T12:40:10;19.70;99.90
14000;DHT22;7075;53.574;10.054;2023-05-27T12:42:40;19.80;99.90
14000;DHT22;7075;53.574;10.054;2023-05-27T12:45:06;20.00;99.90
14000;DHT22;7075;53.574;10.054;2023-05-27T12:47:32;20.10;99.90
14000;DHT22;7075;53.574;10.054;2023-05-27T12:49:58;20.20;99.90
14000;DHT22;7075;53.574;10.054;2023-05-27T12:52:25;20.30;99.90
14000;DHT22;7075;53.574;10.054;2023-05-27T12:54:50;20.50;99.90
14000;DHT22;7075;53.574;10.054;2023-05-27T12:57:16;20.60;99.90
14000;DHT22;7075;53.574;10.054;2023-05-27T12:59:42;20.70;99.90
14000;DHT22;7075;53.574;10.054;2023-05-27T13:02:08;20.80;99.90
14000;DHT22;7075;53.574;10.054;2023-05-27T13:04:34;20.90;99.90
14000;DHT22;7075;53.574;10.054;2023-05-27T13:06:59;20.90;99.90
14000;DHT22;7075;53.574;10.054;2023-05-27T13:09:26;21.00;99.90
14000;DHT22;7075;53.574;10.054;2023-05-27T13:11:51;21.10;99.90
14000;DHT22;7075;53.574;10.054;2023-05-27T13:14:17;21.20;99.90
14000;DHT22;7075;53.574;10.054;2023-05-27T13:16:43;21.20;99.90
14000;DHT22;7075;53.574;10.054;2023-05-27T13:19:08;21.00;99.90
14000;DHT22;7075;53.574;10.054;2023-05-27T13:21:34;20.90;99.90
14000;DHT22;7075;53.574;10.054;2023-05-27T13:24:00;20.90;99.90
14000;DHT22;7075;53.574;10.054;2023-05-27T13:26:27;20.70;99.90
14000;DHT22;7075;53.574;10.054;2023-05-27T13:28:54;20.90;99.90
14000;DHT22;7075;53.574;10.054;2023-05-27T13:31:20;21.10;99.90
14000;DHT22;7075;53.574;10.054;2023-05-27T13:33:46;21.40;99.90
14000;DHT22;7075;53.574;10.054;2023-05-27T13:36:12;21.60;99.90
14000;DHT22;7075;53.574;10.054;2023-05-27T13:38:38;21.90;99.90
14000;DHT22;7075;53.574;10.054;2023-05-27T13:41:04;22.00;99.90
14000;DHT22;7075;53.574;10.054;2023-05-27T13:43:30;22.30;99.90
14000;DHT22;7075;53.574;10.054;2023-05-27T13:45:55;22.40;99.90
14000;DHT22;7075;53.574;10.054;2023-05-27T13:48:21;22.50;99.90
14000;DHT22;7075;53.574;10.054;2023-05-27T13:50:47;22.70;99.90
14000;DHT22;7075;53.574;10.054;2023-05-27T13:53:12;22.90;99.90
14000;DHT22;7075;53.574;10.054;2023-05-27T13:55:38;23.00;99.90
14000;DHT22;7075;53.574;10.054;2023-05-27T13:58:05;23.10;99.90
14000;DHT22;7075;53.574;10.054;2023-05-27T14:00:31;23.20;99.90
14000;DHT22;7075;53.574;10.054;2023-05-27T14:02:57;23.40;99.90
14000;DHT22;7075;53.574;10.054;2023-05-27T14:05:25;23.60;99.90
14000;DHT22;7075;53.574;10.054;2023-05-27T14:07:54;23.40;99.90
14000;DHT22;7075;53.574;10.054;2023-05-27T14:10:19;23.50;99.90
14000;DHT22;7075;53.574;10.054;2023-05-27T14:12:45;23.80;99.90
14000;DHT22;7075;53.574;10.054;2023-05-27T14:15:11;24.00;99.90
14000;DHT22;7075;53.574;10.054;2023-05-27T14:17:37;23.70;97.50
14000;DHT22;7075;53.574;10.054;2023-05-27T14:20:04;23.40;97.80
14000;DHT22;7075;53.574;10.054;2023-05-27T14:22:35;23.10;98.90
14000;DHT22;7075;53.574;10.054;2023-05-27T14:25:01;23.40;98.80
14000;DHT22;7075;53.574;10.054;2023-05-27T14:27:27;23.30;98.10
14000;DHT22;7075;53.574;10.054;2023-05-27T14:29:52;23.60;98.60
14000;DHT22;7075;53.574;10.054;2023-05-27T14:32:18;24.00;99.40
14000;DHT22;7075;53.574;10.054;2023-05-27T14:34:44;24.40;99.10
14000;DHT22;7075;53.574;10.054;2023-05-27T14:37:09;24.70;98.40
14000;DHT22;7075;53.574;10.054;2023-05-27T14:39:35;24.80;96.80
14000;DHT22;7075;53.574;10.054;2023-05-27T14:42:01;25.00;96.90
14000;DHT22;7075;53.574;10.054;2023-05-27T14:44:26;25.10;96.00
14000;DHT22;7075;53.574;10.054;2023-05-27T14:46:52;25.30;95.50
14000;DHT22;7075;53.574;10.054;2023-05-27T14:49:18;25.40;95.30
14000;DHT22;7075;53.574;10.054;2023-05-27T14:51:43;25.30;93.20
14000;DHT22;7075;53.574;10.054;2023-05-27T14:54:09;25.30;93.90
14000;DHT22;7075;53.574;10.054;2023-05-27T14:56:36;25.50;94.80
14000;DHT22;7075;53.574;10.054;2023-05-27T14:59:03;25.70;93.90
14000;DHT22;7075;53.574;10.054;2023-05-27T15:01:30;25.80;91.80
14000;DHT22;7075;53.574;10.054;2023-05-27T15:03:55;25.90;91.20
14000;DHT22;7075;53.574;10.054;2023-05-27T15:06:21;25.90;91.00
14000;DHT22;7075;53.574;10.054;2023-05-27T15:08:47;26.00;90.30
14000;DHT22;7075;53.574;10.054;2023-05-27T15:11:13;26.10;90.00
14000;DHT22;7075;53.574;10.054;2023-05-27T15:13:39;26.30;88.80
14000;DHT22;7075;53.574;10.054;2023-05-27T15:16:05;26.50;89.30
14000;DHT22;7075;53.574;10.054;2023-05-27T15:18:31;26.50;87.00
14000;DHT22;7075;53.574;10.054;2023-05-27T15:20:57;26.60;89.90
14000;DHT22;7075;53.574;10.054;2023-05-27T15:23:23;26.70;89.00
14000;DHT22;7075;53.574;10.054;2023-05-27T15:25:48;26.80;88.50
14000;DHT22;7075;53.574;10.054;2023-05-27T15:28:14;26.90;87.20
14000;DHT22;7075;53.574;10.054;2023-05-27T15:30:40;27.00;81.50
14000;DHT22;7075;53.574;10.054;2023-05-27T15:33:06;26.90;79.60
14000;DHT22;7075;53.574;10.054;2023-05-27T15:35:31;26.90;81.90
14000;DHT22;7075;53.574;10.054;2023-05-27T15:37:57;26.90;77.60
14000;DHT22;7075;53.574;10.054;2023-05-27T15:40:23;26.20;78.00